Time,TemperatureF,DewpointF,PressureIn,WindDirection,WindDirectionDegrees,WindSpeedMPH,WindSpeedGustMPH,Humidity,HourlyPrecipIn,Conditions,Clouds,dailyrainin,SoftwareType,DateUTC
2013-08-11 00:01:00,62.4,58.8,30.26,NNW,338,3.0,4.0,88,-99.99,,,0.75,meteohub,2013-08-11 04:01:00,
2013-08-11 00:02:00,62.4,58.8,30.26,NNW,338,4.0,4.0,88,-99.99,,,0.75,meteohub,2013-08-11 04:02:00,
2013-08-11 00:07:00,62.2,58.6,30.26,NNW,338,3.0,4.0,88,-99.99,,,0.75,meteohub,2013-08-11 04:07:00,
2013-08-11 00:12:00,62.2,58.6,30.26,NNW,338,2.0,4.0,88,-99.99,,,0.75,meteohub,2013-08-11 04:12:00,
2013-08-11 00:17:00,62.2,58.6,30.26,WNW,292,2.0,4.0,88,-99.99,,,0.75,meteohub,2013-08-11 04:17:00,
2013-08-11 00:22:00,62.1,58.5,30.26,NW,315,2.0,4.0,88,-99.99,,,0.75,meteohub,2013-08-11 04:22:00,
2013-08-11 00:27:00,62.2,59.0,30.26,NW,315,2.0,4.0,89,-99.99,,,0.75,meteohub,2013-08-11 04:27:00,
2013-08-11 00:32:00,62.2,59.0,30.26,WNW,292,2.0,4.0,89,-99.99,,,0.75,meteohub,2013-08-11 04:32:00,
2013-08-11 00:37:00,62.2,59.0,30.26,WNW,292,1.0,3.0,89,-99.99,,,0.75,meteohub,2013-08-11 04:37:00,
2013-08-11 00:42:00,62.2,59.0,30.26,NW,315,2.0,3.0,89,0.00,,,0.75,meteohub,2013-08-11 04:42:00,
2013-08-11 00:47:00,62.2,59.0,30.26,NW,315,3.0,3.0,89,0.00,,,0.75,meteohub,2013-08-11 04:47:00,
2013-08-11 00:52:00,62.2,59.0,30.26,NNW,338,4.0,4.0,89,0.00,,,0.75,meteohub,2013-08-11 04:52:00,
2013-08-11 00:57:00,62.1,58.5,30.26,NW,315,2.0,4.0,88,0.00,,,0.75,meteohub,2013-08-11 04:57:00,
2013-08-11 01:02:00,62.1,58.5,30.26,NNW,338,2.0,4.0,88,0.00,,,0.75,meteohub,2013-08-11 05:02:00,
2013-08-11 01:07:00,62.2,59.0,30.26,NE,45,1.0,4.0,89,0.00,,,0.75,meteohub,2013-08-11 05:07:00,
2013-08-11 01:12:00,62.6,59.4,30.26,North,0,3.0,4.0,89,0.00,,,0.75,meteohub,2013-08-11 05:12:00,
2013-08-11 01:17:00,62.4,59.2,30.26,NNW,338,2.0,4.0,89,0.00,,,0.75,meteohub,2013-08-11 05:17:00,
2013-08-11 01:22:00,62.4,59.2,30.26,NW,315,3.0,4.0,89,0.00,,,0.75,meteohub,2013-08-11 05:22:00,
2013-08-11 01:27:00,62.2,59.0,30.26,NNW,338,4.0,4.0,89,0.00,,,0.75,meteohub,2013-08-11 05:27:00,
2013-08-11 01:32:00,62.2,59.0,30.26,NNE,22,4.0,4.0,89,0.00,,,0.75,meteohub,2013-08-11 05:32:00,
2013-08-11 01:37:00,62.2,59.0,30.26,North,0,4.0,5.0,89,0.00,,,0.75,meteohub,2013-08-11 05:37:00,
2013-08-11 01:42:00,62.2,59.0,30.26,NNW,338,6.0,6.0,89,0.00,,,0.75,meteohub,2013-08-11 05:42:00,
2013-08-11 01:47:00,62.1,58.8,30.26,North,0,5.0,6.0,89,0.00,,,0.75,meteohub,2013-08-11 05:47:00,
2013-08-11 01:52:00,62.1,58.8,30.26,North,0,6.0,6.0,89,0.00,,,0.75,meteohub,2013-08-11 05:52:00,
2013-08-11 01:57:00,62.1,58.8,30.26,North,0,5.0,6.0,89,-99.99,,,0.75,meteohub,2013-08-11 05:57:00,
2013-08-11 02:02:00,62.1,59.2,30.26,North,0,5.0,6.0,90,-99.99,,,0.75,meteohub,2013-08-11 06:02:00,
2013-08-11 02:07:00,61.9,59.0,30.26,NW,315,3.0,6.0,90,-99.99,,,0.75,meteohub,2013-08-11 06:07:00,
2013-08-11 02:12:00,61.9,58.6,30.26,NNW,338,4.0,6.0,89,-99.99,,,0.75,meteohub,2013-08-11 06:12:00,
2013-08-11 02:17:00,61.9,58.6,30.26,NNE,22,5.0,6.0,89,-99.99,,,0.75,meteohub,2013-08-11 06:17:00,
2013-08-11 02:23:00,61.9,59.0,30.26,NNW,338,4.0,6.0,90,-99.99,,,0.75,meteohub,2013-08-11 06:23:00,
2013-08-11 02:28:00,61.9,59.0,30.26,NNW,338,4.0,5.0,90,-99.99,,,0.75,meteohub,2013-08-11 06:28:00,
2013-08-11 02:33:00,61.9,59.0,30.26,NW,315,3.0,6.0,90,-99.99,,,0.75,meteohub,2013-08-11 06:33:00,
2013-08-11 02:38:00,61.9,59.0,30.26,NW,315,2.0,6.0,90,-99.99,,,0.75,meteohub,2013-08-11 06:38:00,
2013-08-11 02:44:00,61.9,59.0,30.26,NW,315,3.0,6.0,90,-99.99,,,0.75,meteohub,2013-08-11 06:44:00,
2013-08-11 02:49:00,61.9,59.0,30.26,WNW,292,3.0,4.0,90,-99.99,,,0.75,meteohub,2013-08-11 06:49:00,
2013-08-11 02:54:00,61.7,58.8,30.27,NW,315,3.0,4.0,90,-99.99,,,0.75,meteohub,2013-08-11 06:54:00,
2013-08-11 02:59:00,61.5,58.6,30.23,NW,315,3.0,4.0,90,-99.99,,,0.75,meteohub,2013-08-11 06:59:00,
2013-08-11 03:05:00,61.5,58.6,30.23,NW,315,3.0,5.0,90,-99.99,,,0.75,meteohub,2013-08-11 07:05:00,
2013-08-11 03:10:00,61.7,58.8,30.23,NW,315,3.0,5.0,90,-99.99,,,0.75,meteohub,2013-08-11 07:10:00,
2013-08-11 03:16:00,61.7,58.8,30.23,WNW,292,3.0,3.0,90,-99.99,,,0.75,meteohub,2013-08-11 07:16:00,
2013-08-11 03:21:00,61.7,59.0,30.23,WNW,292,3.0,3.0,91,-99.99,,,0.75,meteohub,2013-08-11 07:21:00,
2013-08-11 03:26:00,61.7,59.0,30.23,NW,315,3.0,3.0,91,-99.99,,,0.75,meteohub,2013-08-11 07:26:00,
2013-08-11 03:32:00,61.9,59.2,30.26,WNW,292,4.0,4.0,91,-99.99,,,0.75,meteohub,2013-08-11 07:32:00,
2013-08-11 03:37:00,61.9,59.2,30.26,WNW,292,4.0,4.0,91,-99.99,,,0.75,meteohub,2013-08-11 07:37:00,
2013-08-11 03:42:00,61.9,59.2,30.23,WNW,292,3.0,4.0,91,-99.99,,,0.75,meteohub,2013-08-11 07:42:00,
2013-08-11 03:47:00,61.9,59.2,30.23,NW,315,4.0,4.0,91,-99.99,,,0.75,meteohub,2013-08-11 07:47:00,
2013-08-11 03:52:00,62.1,59.7,30.23,WNW,292,3.0,4.0,92,-99.99,,,0.75,meteohub,2013-08-11 07:52:00,
2013-08-11 03:57:00,62.1,59.7,30.23,NW,315,4.0,4.0,92,-99.99,,,0.75,meteohub,2013-08-11 07:57:00,
2013-08-11 04:02:00,62.1,59.7,30.23,NW,315,3.0,4.0,92,0.00,,,0.00,meteohub,2013-08-11 08:02:00,
2013-08-11 04:07:00,62.2,59.9,30.23,WNW,292,3.0,4.0,92,0.00,,,0.00,meteohub,2013-08-11 08:07:00,
2013-08-11 04:12:00,62.2,59.9,30.23,NW,315,3.0,4.0,92,0.00,,,0.00,meteohub,2013-08-11 08:12:00,
2013-08-11 04:17:00,62.2,59.9,30.23,WNW,292,4.0,4.0,92,0.00,,,0.00,meteohub,2013-08-11 08:17:00,
2013-08-11 04:22:00,62.2,59.9,30.23,NW,315,3.0,5.0,92,0.00,,,0.00,meteohub,2013-08-11 08:22:00,
2013-08-11 04:27:00,62.2,59.9,30.26,WNW,292,2.0,5.0,92,0.00,,,0.00,meteohub,2013-08-11 08:27:00,
2013-08-11 04:32:00,62.2,59.9,30.26,WNW,292,3.0,5.0,92,0.00,,,0.00,meteohub,2013-08-11 08:32:00,
2013-08-11 04:37:00,62.2,59.9,30.26,WNW,292,3.0,4.0,92,0.00,,,0.00,meteohub,2013-08-11 08:37:00,
2013-08-11 04:42:00,62.2,59.9,30.26,NW,315,4.0,4.0,92,0.00,,,0.00,meteohub,2013-08-11 08:42:00,
2013-08-11 04:47:00,62.2,59.9,30.26,ENE,68,3.0,4.0,92,0.00,,,0.00,meteohub,2013-08-11 08:47:00,
2013-08-11 04:53:00,62.2,59.9,30.26,NW,315,3.0,4.0,92,0.00,,,0.00,meteohub,2013-08-11 08:53:00,
2013-08-11 04:58:00,62.2,59.9,30.26,West,270,3.0,4.0,92,0.00,,,0.00,meteohub,2013-08-11 08:58:00,
2013-08-11 05:03:00,62.2,59.9,30.26,WNW,292,2.0,4.0,92,0.00,,,0.00,meteohub,2013-08-11 09:03:00,
2013-08-11 05:08:00,62.2,60.3,30.26,WNW,292,3.0,4.0,93,0.00,,,0.00,meteohub,2013-08-11 09:08:00,
2013-08-11 05:13:00,62.2,60.3,30.26,West,270,1.0,4.0,93,0.00,,,0.00,meteohub,2013-08-11 09:13:00,
2013-08-11 05:19:00,62.2,60.3,30.26,West,270,2.0,3.0,93,0.00,,,0.00,meteohub,2013-08-11 09:19:00,
2013-08-11 05:24:00,62.2,60.3,30.26,NW,315,4.0,4.0,93,0.00,,,0.00,meteohub,2013-08-11 09:24:00,
2013-08-11 05:29:00,62.2,60.3,30.26,NNW,338,4.0,4.0,93,0.00,,,0.00,meteohub,2013-08-11 09:29:00,
2013-08-11 05:34:00,62.2,60.3,30.26,NW,315,2.0,4.0,93,0.00,,,0.00,meteohub,2013-08-11 09:34:00,
2013-08-11 05:39:00,62.2,60.3,30.26,WNW,292,2.0,4.0,93,0.00,,,0.00,meteohub,2013-08-11 09:39:00,
2013-08-11 05:44:00,62.2,60.3,30.26,WNW,292,3.0,4.0,93,0.00,,,0.00,meteohub,2013-08-11 09:44:00,
2013-08-11 05:49:00,62.2,60.3,30.26,WNW,292,3.0,4.0,93,0.00,,,0.00,meteohub,2013-08-11 09:49:00,
2013-08-11 05:54:00,62.2,60.3,30.26,NW,315,2.0,4.0,93,-99.99,,,0.00,meteohub,2013-08-11 09:54:00,
2013-08-11 05:59:00,62.4,60.4,30.26,WNW,292,3.0,4.0,93,-99.99,,,0.00,meteohub,2013-08-11 09:59:00,
2013-08-11 06:04:00,62.4,60.4,30.26,NW,315,2.0,4.0,93,0.00,,,0.00,meteohub,2013-08-11 10:04:00,
2013-08-11 06:09:00,62.4,60.4,30.26,NW,315,2.0,4.0,93,0.00,,,0.00,meteohub,2013-08-11 10:09:00,
2013-08-11 06:14:00,62.2,60.3,30.26,NNW,338,3.0,4.0,93,0.00,,,0.00,meteohub,2013-08-11 10:14:00,
2013-08-11 06:20:00,62.4,60.4,30.26,NW,315,2.0,4.0,93,0.00,,,0.00,meteohub,2013-08-11 10:20:00,
2013-08-11 06:25:00,62.6,60.6,30.26,NW,315,4.0,4.0,93,0.00,,,0.00,meteohub,2013-08-11 10:25:00,
2013-08-11 06:30:00,63.0,61.0,30.26,NNW,338,3.0,4.0,93,0.00,,,0.00,meteohub,2013-08-11 10:30:00,
2013-08-11 06:35:00,63.0,61.2,30.26,WNW,292,4.0,6.0,94,0.00,,,0.00,meteohub,2013-08-11 10:35:00,
2013-08-11 06:40:00,63.1,61.3,30.25,WNW,292,4.0,6.0,94,0.00,,,0.00,meteohub,2013-08-11 10:40:00,
2013-08-11 06:45:00,63.1,61.3,30.25,NW,315,4.0,6.0,94,0.00,,,0.00,meteohub,2013-08-11 10:45:00,
2013-08-11 06:50:00,63.3,61.9,30.25,WNW,292,4.0,6.0,95,0.00,,,0.00,meteohub,2013-08-11 10:50:00,
2013-08-11 06:55:00,63.3,61.9,30.25,NW,315,3.0,6.0,95,0.00,,,0.00,meteohub,2013-08-11 10:55:00,
2013-08-11 07:00:00,63.5,62.1,30.25,WNW,292,4.0,6.0,95,0.00,,,0.00,meteohub,2013-08-11 11:00:00,
2013-08-11 07:05:00,63.7,62.2,30.25,NW,315,3.0,6.0,95,0.00,,,0.00,meteohub,2013-08-11 11:05:00,
2013-08-11 07:11:00,63.9,62.8,30.25,WNW,292,3.0,6.0,96,0.00,,,0.00,meteohub,2013-08-11 11:11:00,
2013-08-11 07:16:00,64.0,63.0,30.25,WNW,292,5.0,6.0,96,0.00,,,0.00,meteohub,2013-08-11 11:16:00,
2013-08-11 07:21:00,64.2,63.1,30.25,NW,315,4.0,6.0,96,0.00,,,0.00,meteohub,2013-08-11 11:21:00,
2013-08-11 07:26:00,64.4,63.3,30.25,WNW,292,4.0,6.0,96,0.00,,,0.00,meteohub,2013-08-11 11:26:00,
2013-08-11 07:31:00,64.6,63.5,30.24,WNW,292,4.0,5.0,96,0.00,,,0.00,meteohub,2013-08-11 11:31:00,
2013-08-11 07:36:00,64.8,63.7,30.24,NW,315,4.0,5.0,96,0.00,,,0.00,meteohub,2013-08-11 11:36:00,
2013-08-11 07:41:00,64.9,64.0,30.24,NW,315,3.0,5.0,97,0.00,,,0.00,meteohub,2013-08-11 11:41:00,
2013-08-11 07:47:00,65.1,64.2,30.24,NW,315,4.0,6.0,97,0.00,,,0.00,meteohub,2013-08-11 11:47:00,
2013-08-11 07:52:00,65.1,64.2,30.24,NW,315,3.0,6.0,97,0.00,,,0.00,meteohub,2013-08-11 11:52:00,
2013-08-11 07:57:00,65.3,64.4,30.24,NW,315,2.0,5.0,97,-99.99,,,0.00,meteohub,2013-08-11 11:57:00,
2013-08-11 08:02:00,65.5,64.6,30.24,North,-999,-999.0,4.0,97,-99.99,,,0.00,meteohub,2013-08-11 12:02:00,
2013-08-11 08:07:00,65.5,64.6,30.24,NNE,22,4.0,4.0,97,-99.99,,,0.00,meteohub,2013-08-11 12:07:00,
2013-08-11 08:12:00,65.3,64.4,30.24,NNW,338,4.0,4.0,97,-99.99,,,0.00,meteohub,2013-08-11 12:12:00,
2013-08-11 08:18:00,65.3,64.4,30.24,WNW,292,3.0,4.0,97,-99.99,,,0.00,meteohub,2013-08-11 12:18:00,
2013-08-11 08:23:00,65.3,64.0,30.24,NNW,338,2.0,4.0,96,-99.99,,,0.00,meteohub,2013-08-11 12:23:00,
2013-08-11 08:28:00,65.3,64.0,30.27,NNW,338,3.0,4.0,96,-99.99,,,0.00,meteohub,2013-08-11 12:28:00,
2013-08-11 08:33:00,65.7,64.4,30.27,North,-999,-999.0,4.0,96,-99.99,,,0.00,meteohub,2013-08-11 12:33:00,
2013-08-11 08:38:00,65.8,64.6,30.27,North,-999,-999.0,4.0,96,-99.99,,,0.00,meteohub,2013-08-11 12:38:00,
2013-08-11 08:43:00,65.8,64.6,30.27,NNW,338,0.0,3.0,96,-99.99,,,0.00,meteohub,2013-08-11 12:43:00,
2013-08-11 08:51:00,66.4,64.9,30.26,NNE,22,2.0,0.0,95,-99.99,,,0.00,meteohub,2013-08-11 12:51:00,
2013-08-11 08:56:00,66.4,64.9,30.26,WSW,248,0.0,2.0,95,-99.99,,,0.00,meteohub,2013-08-11 12:56:00,
2013-08-11 09:02:00,66.6,65.1,30.26,West,270,1.0,2.0,95,-99.99,,,0.00,meteohub,2013-08-11 13:02:00,
2013-08-11 09:08:00,66.6,64.8,30.26,SSE,158,1.0,2.0,94,0.00,,,0.00,meteohub,2013-08-11 13:08:00,
2013-08-11 09:13:00,66.6,64.8,30.26,NW,315,3.0,3.0,94,0.00,,,0.00,meteohub,2013-08-11 13:13:00,
2013-08-11 09:21:00,66.7,64.6,30.26,WNW,292,4.0,4.0,93,0.00,,,0.00,meteohub,2013-08-11 13:21:00,
2013-08-11 09:26:00,66.7,64.4,30.26,NW,315,4.0,6.0,92,0.00,,,0.00,meteohub,2013-08-11 13:26:00,
2013-08-11 09:31:00,66.9,64.6,30.26,NW,315,3.0,6.0,92,0.00,,,0.00,meteohub,2013-08-11 13:31:00,
2013-08-11 09:36:00,67.1,64.8,30.26,NNE,22,3.0,6.0,92,0.00,,,0.00,meteohub,2013-08-11 13:36:00,
2013-08-11 09:42:00,67.6,64.9,30.25,WNW,292,2.0,5.0,91,0.00,,,0.00,meteohub,2013-08-11 13:42:00,
2013-08-11 10:26:00,68.9,63.1,30.25,NNE,22,4.0,4.0,82,0.00,,,0.00,meteohub,2013-08-11 14:26:00,
2013-08-11 10:32:00,68.7,61.9,30.25,WNW,292,2.0,5.0,79,0.00,,,0.00,meteohub,2013-08-11 14:32:00,
2013-08-11 10:38:00,68.9,62.1,30.25,ENE,68,1.0,5.0,79,0.00,,,0.00,meteohub,2013-08-11 14:38:00,
2013-08-11 10:43:00,68.9,62.1,30.28,West,270,2.0,5.0,79,0.00,,,0.00,meteohub,2013-08-11 14:43:00,
2013-08-11 10:48:00,69.1,62.2,30.28,WSW,248,1.0,4.0,79,0.00,,,0.00,meteohub,2013-08-11 14:48:00,
2013-08-11 11:17:00,72.0,60.4,30.22,North,0,2.0,4.0,67,-99.99,,,0.00,meteohub,2013-08-11 15:17:00,
2013-08-11 11:22:00,72.0,59.9,30.22,WNW,292,1.0,4.0,66,0.00,,,0.00,meteohub,2013-08-11 15:22:00,
2013-08-11 11:27:00,72.1,60.1,30.22,ENE,68,4.0,4.0,66,0.00,,,0.00,meteohub,2013-08-11 15:27:00,
2013-08-11 12:26:00,78.4,55.4,30.17,NNE,22,2.0,6.0,45,0.00,,,0.00,meteohub,2013-08-11 16:26:00,
2013-08-11 12:37:00,76.5,54.7,30.19,WNW,292,1.0,8.0,47,0.00,,,0.00,meteohub,2013-08-11 16:37:00,
2013-08-11 12:42:00,76.8,54.5,30.19,ENE,68,2.0,8.0,46,0.00,,,0.00,meteohub,2013-08-11 16:42:00,
2013-08-11 12:47:00,77.0,55.8,30.18,ESE,112,3.0,5.0,48,0.00,,,0.00,meteohub,2013-08-11 16:47:00,
2013-08-11 12:53:00,77.2,55.9,30.18,North,-999,-999.0,5.0,48,0.00,,,0.00,meteohub,2013-08-11 16:53:00,
2013-08-11 12:58:00,77.7,56.5,30.18,NNW,338,3.0,3.0,48,0.00,,,0.00,meteohub,2013-08-11 16:58:00,
2013-08-11 13:04:00,77.4,56.7,30.18,WSW,248,1.0,3.0,49,0.00,,,0.00,meteohub,2013-08-11 17:04:00,
2013-08-11 13:09:00,77.0,53.4,30.18,NW,315,4.0,4.0,44,0.00,,,0.00,meteohub,2013-08-11 17:09:00,
2013-08-11 13:14:00,78.3,53.2,30.17,NNW,338,2.0,4.0,42,0.00,,,0.00,meteohub,2013-08-11 17:14:00,
2013-08-11 13:19:00,79.0,54.0,30.17,WNW,292,4.0,4.0,42,0.00,,,0.00,meteohub,2013-08-11 17:19:00,
2013-08-11 13:24:00,80.1,55.6,30.16,WNW,292,3.0,4.0,43,0.00,,,0.00,meteohub,2013-08-11 17:24:00,
2013-08-11 13:29:00,80.2,54.3,30.16,NW,315,6.0,6.0,41,0.00,,,0.00,meteohub,2013-08-11 17:29:00,
2013-08-11 13:34:00,78.4,52.9,30.17,North,-999,-999.0,6.0,41,0.00,,,0.00,meteohub,2013-08-11 17:34:00,
2013-08-11 13:39:00,80.1,53.6,30.16,North,-999,-999.0,6.0,40,0.00,,,0.00,meteohub,2013-08-11 17:39:00,
2013-08-11 13:45:00,81.9,55.9,30.15,North,-999,-999.0,6.0,41,0.00,,,0.00,meteohub,2013-08-11 17:45:00,
2013-08-11 13:50:00,81.3,54.7,30.15,WNW,292,0.0,-999.0,40,0.00,,,0.00,meteohub,2013-08-11 17:50:00,
2013-08-11 13:55:00,82.8,51.6,30.14,SSE,158,4.0,0.0,34,0.00,,,0.00,meteohub,2013-08-11 17:55:00,
2013-08-11 14:00:00,83.3,54.3,30.14,WSW,248,1.0,4.0,37,0.00,,,0.00,meteohub,2013-08-11 18:00:00,
2013-08-11 14:05:00,83.3,53.6,30.14,SSW,202,0.0,4.0,36,0.00,,,0.00,meteohub,2013-08-11 18:05:00,
2013-08-11 14:10:00,82.9,52.5,30.14,SSE,158,2.0,4.0,35,0.00,,,0.00,meteohub,2013-08-11 18:10:00,
2013-08-11 14:15:00,82.9,54.0,30.14,SSE,158,3.0,4.0,37,0.00,,,0.00,meteohub,2013-08-11 18:15:00,
2013-08-11 14:20:00,81.5,51.3,30.15,SW,225,2.0,4.0,35,0.00,,,0.00,meteohub,2013-08-11 18:20:00,
2013-08-11 14:25:00,81.1,52.3,30.15,North,-999,-999.0,4.0,37,0.00,,,0.00,meteohub,2013-08-11 18:25:00,
2013-08-11 14:31:00,80.6,53.4,30.16,North,-999,-999.0,3.0,39,0.00,,,0.00,meteohub,2013-08-11 18:31:00,
2013-08-11 14:36:00,79.9,52.0,30.16,North,-999,-999.0,3.0,38,0.00,,,0.00,meteohub,2013-08-11 18:36:00,
2013-08-11 15:08:00,82.6,54.3,30.11,NW,315,1.0,4.0,38,0.00,,,0.00,meteohub,2013-08-11 19:08:00,
2013-08-11 15:14:00,82.0,54.0,30.15,NNW,338,3.0,4.0,38,0.00,,,0.00,meteohub,2013-08-11 19:14:00,
2013-08-11 15:19:00,81.1,51.6,30.15,North,-999,-999.0,4.0,36,0.00,,,0.00,meteohub,2013-08-11 19:19:00,
2013-08-11 15:25:00,82.4,55.0,30.14,West,270,0.0,4.0,39,0.00,,,0.00,meteohub,2013-08-11 19:25:00,
2013-08-11 15:30:00,83.3,53.6,30.11,North,-999,-999.0,3.0,36,0.00,,,0.00,meteohub,2013-08-11 19:30:00,
2013-08-11 15:35:00,83.8,51.6,30.10,NW,315,3.0,0.0,33,0.00,,,0.00,meteohub,2013-08-11 19:35:00,
2013-08-11 15:40:00,84.9,52.7,30.09,North,-999,-999.0,3.0,33,0.00,,,0.00,meteohub,2013-08-11 19:40:00,
2013-08-11 15:45:00,85.3,52.2,30.09,North,-999,-999.0,3.0,32,0.00,,,0.00,meteohub,2013-08-11 19:45:00,
2013-08-11 15:51:00,86.0,52.7,30.09,SSW,202,0.0,-999.0,32,0.00,,,0.00,meteohub,2013-08-11 19:51:00,
2013-08-11 15:56:00,85.8,51.6,30.09,North,-999,-999.0,0.0,31,0.00,,,0.00,meteohub,2013-08-11 19:56:00,
2013-08-11 16:01:00,86.0,51.8,30.09,North,0,2.0,2.0,31,0.00,,,0.00,meteohub,2013-08-11 20:01:00,
2013-08-11 16:06:00,86.4,52.2,30.08,West,270,0.0,2.0,31,0.00,,,0.00,meteohub,2013-08-11 20:06:00,
2013-08-11 16:11:00,85.3,52.2,30.09,West,270,0.0,2.0,32,0.00,,,0.00,meteohub,2013-08-11 20:11:00,
2013-08-11 16:16:00,83.1,48.6,30.11,WNW,292,3.0,3.0,30,0.00,,,0.00,meteohub,2013-08-11 20:16:00,
2013-08-11 16:21:00,82.4,48.7,30.11,NW,315,3.0,3.0,31,0.00,,,0.00,meteohub,2013-08-11 20:21:00,
2013-08-11 16:26:00,82.0,49.3,30.12,NW,315,3.0,4.0,32,0.00,,,0.00,meteohub,2013-08-11 20:26:00,
2013-08-11 16:31:00,81.0,50.0,30.12,WNW,292,2.0,4.0,34,0.00,,,0.00,meteohub,2013-08-11 20:31:00,
2013-08-11 16:36:00,80.2,50.2,30.13,NW,315,4.0,4.0,35,0.00,,,0.00,meteohub,2013-08-11 20:36:00,
2013-08-11 16:42:00,79.7,50.4,30.13,NW,315,2.0,4.0,36,0.00,,,0.00,meteohub,2013-08-11 20:42:00,
2013-08-11 16:47:00,79.2,51.4,30.14,NW,315,4.0,4.0,38,0.00,,,0.00,meteohub,2013-08-11 20:47:00,
2013-08-11 16:52:00,77.7,50.7,30.14,WSW,248,0.0,4.0,39,0.00,,,0.00,meteohub,2013-08-11 20:52:00,
2013-08-11 16:57:00,77.2,51.1,30.15,ENE,68,2.0,4.0,40,0.00,,,0.00,meteohub,2013-08-11 20:57:00,
2013-08-11 17:02:00,76.8,50.0,30.15,WNW,292,0.0,4.0,39,0.00,,,0.00,meteohub,2013-08-11 21:02:00,
2013-08-11 17:07:00,77.0,50.9,30.15,WNW,292,4.0,4.0,40,0.00,,,0.00,meteohub,2013-08-11 21:07:00,
2013-08-11 17:12:00,77.2,49.6,30.15,WSW,248,1.0,4.0,38,0.00,,,0.00,meteohub,2013-08-11 21:12:00,
2013-08-11 17:17:00,77.7,52.2,30.14,North,0,4.0,4.0,41,0.00,,,0.00,meteohub,2013-08-11 21:17:00,
2013-08-11 17:22:00,78.1,51.1,30.14,NNE,22,4.0,4.0,39,0.00,,,0.00,meteohub,2013-08-11 21:22:00,
2013-08-11 17:27:00,78.1,50.4,30.14,ESE,112,0.0,4.0,38,0.00,,,0.00,meteohub,2013-08-11 21:27:00,
2013-08-11 17:32:00,78.3,50.5,30.14,East,90,1.0,4.0,38,0.00,,,0.00,meteohub,2013-08-11 21:32:00,
2013-08-11 17:37:00,77.9,52.3,30.14,SE,135,3.0,4.0,41,0.00,,,0.00,meteohub,2013-08-11 21:37:00,
2013-08-11 17:42:00,77.5,53.2,30.15,SSE,158,2.0,4.0,43,0.00,,,0.00,meteohub,2013-08-11 21:42:00,
2013-08-11 17:47:00,76.8,55.0,30.15,SSE,158,6.0,6.0,47,0.00,,,0.00,meteohub,2013-08-11 21:47:00,
2013-08-11 17:52:00,76.5,55.9,30.15,SSE,158,4.0,6.0,49,0.00,,,0.00,meteohub,2013-08-11 21:52:00,
2013-08-11 17:57:00,76.1,56.1,30.16,SE,135,5.0,6.0,50,0.00,,,0.00,meteohub,2013-08-11 21:57:00,
2013-08-11 18:02:00,75.6,55.6,30.16,SE,135,5.0,6.0,50,0.00,,,0.00,meteohub,2013-08-11 22:02:00,
2013-08-11 18:08:00,75.2,56.3,30.16,SSE,158,6.0,6.0,52,0.00,,,0.00,meteohub,2013-08-11 22:08:00,
2013-08-11 18:13:00,74.7,57.4,30.17,SSE,158,6.0,6.0,55,0.00,,,0.00,meteohub,2013-08-11 22:13:00,
2013-08-11 18:18:00,74.3,57.6,30.17,SSE,158,6.0,8.0,56,0.00,,,0.00,meteohub,2013-08-11 22:18:00,
2013-08-11 18:23:00,73.9,58.3,30.17,SSE,158,5.0,8.0,58,0.00,,,0.00,meteohub,2013-08-11 22:23:00,
2013-08-11 18:28:00,73.6,58.8,30.17,ESE,112,4.0,8.0,60,0.00,,,0.00,meteohub,2013-08-11 22:28:00,
2013-08-11 18:33:00,73.6,58.8,30.17,SSE,158,3.0,7.0,60,0.00,,,0.00,meteohub,2013-08-11 22:33:00,
2013-08-11 18:39:00,73.4,59.5,30.18,ESE,112,3.0,7.0,62,0.00,,,0.00,meteohub,2013-08-11 22:39:00,
2013-08-11 18:44:00,73.2,59.4,30.18,SE,135,4.0,6.0,62,0.00,,,0.00,meteohub,2013-08-11 22:44:00,
2013-08-11 18:49:00,73.0,59.7,30.18,SE,135,2.0,5.0,63,0.00,,,0.00,meteohub,2013-08-11 22:49:00,
2013-08-11 18:54:00,72.7,59.7,30.18,SE,135,2.0,4.0,64,0.00,,,0.00,meteohub,2013-08-11 22:54:00,
2013-08-11 18:59:00,72.5,60.1,30.18,SE,135,0.0,4.0,65,0.00,,,0.00,meteohub,2013-08-11 22:59:00,
2013-08-11 19:04:00,72.5,60.1,30.18,SE,135,0.0,4.0,65,0.00,,,0.00,meteohub,2013-08-11 23:04:00,
2013-08-11 19:10:00,72.5,60.4,30.18,WNW,292,1.0,4.0,66,0.00,,,0.00,meteohub,2013-08-11 23:10:00,
2013-08-11 19:14:00,72.5,60.4,30.18,WNW,292,3.0,3.0,66,0.00,,,0.00,meteohub,2013-08-11 23:14:00,
2013-08-11 19:20:00,71.6,58.8,30.19,NW,315,3.0,4.0,64,0.00,,,0.00,meteohub,2013-08-11 23:20:00,
2013-08-11 19:25:00,71.2,58.8,30.19,NW,315,2.0,4.0,65,0.00,,,0.00,meteohub,2013-08-11 23:25:00,
2013-08-11 19:30:00,70.5,58.3,30.20,North,-999,-999.0,4.0,65,0.00,,,0.00,meteohub,2013-08-11 23:30:00,
2013-08-11 19:35:00,70.2,57.9,30.20,North,-999,-999.0,4.0,65,0.00,,,0.00,meteohub,2013-08-11 23:35:00,
2013-08-11 19:41:00,69.6,58.1,30.20,North,-999,-999.0,-999.0,67,0.00,,,0.00,meteohub,2013-08-11 23:41:00,
2013-08-11 19:46:00,69.3,57.9,30.21,North,-999,-999.0,-999.0,67,0.00,,,0.00,meteohub,2013-08-11 23:46:00,
2013-08-11 19:51:00,69.1,57.7,30.21,North,-999,-999.0,-999.0,67,0.00,,,0.00,meteohub,2013-08-11 23:51:00,
2013-08-11 19:56:00,68.9,57.9,30.21,WNW,292,3.0,3.0,68,0.00,,,0.00,meteohub,2013-08-11 23:56:00,
2013-08-11 20:01:00,68.7,57.7,30.21,North,-999,-999.0,3.0,68,0.00,,,0.00,meteohub,2013-08-12 00:01:00,
2013-08-11 20:06:00,68.5,57.9,30.21,North,-999,-999.0,3.0,69,0.00,,,0.00,meteohub,2013-08-12 00:06:00,
2013-08-11 20:11:00,68.5,57.9,30.21,NW,315,3.0,3.0,69,0.00,,,0.00,meteohub,2013-08-12 00:11:00,
2013-08-11 20:16:00,68.4,57.7,30.22,NW,315,3.0,3.0,69,0.00,,,0.00,meteohub,2013-08-12 00:16:00,
2013-08-11 20:21:00,68.5,57.9,30.21,North,-999,-999.0,3.0,69,0.00,,,0.00,meteohub,2013-08-12 00:21:00,
2013-08-11 20:26:00,68.7,57.7,30.21,North,-999,-999.0,3.0,68,0.00,,,0.00,meteohub,2013-08-12 00:26:00,
2013-08-11 20:31:00,69.1,57.2,30.21,WSW,248,1.0,3.0,66,0.00,,,0.00,meteohub,2013-08-12 00:31:00,
2013-08-11 20:37:00,69.1,56.5,30.21,WNW,292,1.0,2.0,64,0.00,,,0.00,meteohub,2013-08-12 00:37:00,
2013-08-11 20:42:00,69.1,55.9,30.21,ENE,68,2.0,3.0,63,0.00,,,0.00,meteohub,2013-08-12 00:42:00,
2013-08-11 20:47:00,69.1,55.6,30.21,NNE,22,2.0,3.0,62,0.00,,,0.00,meteohub,2013-08-12 00:47:00,
2013-08-11 20:52:00,68.9,55.4,30.21,NE,45,2.0,4.0,62,0.00,,,0.00,meteohub,2013-08-12 00:52:00,
2013-08-11 20:57:00,68.9,54.9,30.21,North,0,3.0,4.0,61,0.00,,,0.00,meteohub,2013-08-12 00:57:00,
2013-08-11 21:02:00,68.7,54.7,30.21,North,0,3.0,4.0,61,0.00,,,0.00,meteohub,2013-08-12 01:02:00,
2013-08-11 21:08:00,68.5,55.4,30.21,NW,315,3.0,6.0,63,0.00,,,0.00,meteohub,2013-08-12 01:08:00,
2013-08-11 21:13:00,68.5,55.4,30.21,NW,315,3.0,6.0,63,0.00,,,0.00,meteohub,2013-08-12 01:13:00,
2013-08-11 21:18:00,68.4,55.8,30.22,NW,315,3.0,6.0,64,0.00,,,0.00,meteohub,2013-08-12 01:18:00,
2013-08-11 21:23:00,68.2,55.6,30.22,North,-999,-999.0,3.0,64,0.00,,,0.00,meteohub,2013-08-12 01:23:00,
2013-08-11 21:28:00,68.0,55.8,30.22,NW,315,2.0,3.0,65,0.00,,,0.00,meteohub,2013-08-12 01:28:00,
2013-08-11 21:34:00,67.8,56.5,30.22,North,-999,-999.0,3.0,67,0.00,,,0.00,meteohub,2013-08-12 01:34:00,
2013-08-11 21:39:00,67.8,56.8,30.22,North,-999,-999.0,3.0,68,0.00,,,0.00,meteohub,2013-08-12 01:39:00,
2013-08-11 21:44:00,67.8,56.8,30.22,North,-999,-999.0,3.0,68,0.00,,,0.00,meteohub,2013-08-12 01:44:00,
2013-08-11 21:49:00,67.6,57.2,30.22,North,-999,-999.0,3.0,69,0.00,,,0.00,meteohub,2013-08-12 01:49:00,
2013-08-11 21:55:00,67.6,57.2,30.22,North,-999,-999.0,-999.0,69,0.00,,,0.00,meteohub,2013-08-12 01:55:00,
2013-08-11 22:00:00,67.6,57.2,30.22,WNW,292,1.0,-999.0,69,0.00,,,0.00,meteohub,2013-08-12 02:00:00,
2013-08-11 22:05:00,67.6,57.2,30.22,WSW,248,3.0,3.0,69,0.00,,,0.00,meteohub,2013-08-12 02:05:00,
2013-08-11 22:10:00,67.6,56.7,30.22,NW,315,2.0,3.0,68,0.00,,,0.00,meteohub,2013-08-12 02:10:00,
2013-08-11 22:15:00,67.6,56.7,30.22,North,-999,-999.0,3.0,68,0.00,,,0.00,meteohub,2013-08-12 02:15:00,
2013-08-11 22:20:00,67.6,56.7,30.22,WNW,292,2.0,2.0,68,0.00,,,0.00,meteohub,2013-08-12 02:20:00,
2013-08-11 22:25:00,67.6,56.7,30.22,NNW,338,2.0,2.0,68,0.00,,,0.00,meteohub,2013-08-12 02:25:00,
2013-08-11 22:30:00,67.6,56.7,30.22,West,270,3.0,5.0,68,0.00,,,0.00,meteohub,2013-08-12 02:30:00,
2013-08-11 22:35:00,67.5,56.1,30.22,NNE,22,3.0,5.0,67,0.00,,,0.00,meteohub,2013-08-12 02:35:00,
2013-08-11 22:40:00,67.3,56.3,30.22,North,-999,-999.0,5.0,68,0.00,,,0.00,meteohub,2013-08-12 02:40:00,
2013-08-11 22:45:00,67.1,56.7,30.22,North,-999,-999.0,3.0,69,0.00,,,0.00,meteohub,2013-08-12 02:45:00,
2013-08-11 22:50:00,66.9,56.8,30.22,North,-999,-999.0,-999.0,70,0.00,,,0.00,meteohub,2013-08-12 02:50:00,
2013-08-11 22:56:00,66.7,56.7,30.23,North,-999,-999.0,-999.0,70,0.00,,,0.00,meteohub,2013-08-12 02:56:00,
2013-08-11 23:01:00,66.6,56.8,30.23,North,-999,-999.0,-999.0,71,0.00,,,0.00,meteohub,2013-08-12 03:01:00,
2013-08-11 23:06:00,66.6,56.8,30.23,NW,315,3.0,-999.0,71,0.00,,,0.00,meteohub,2013-08-12 03:06:00,
2013-08-11 23:11:00,66.4,57.0,30.23,WNW,292,3.0,3.0,72,0.00,,,0.00,meteohub,2013-08-12 03:11:00,
2013-08-11 23:17:00,66.4,57.0,30.23,North,-999,-999.0,3.0,72,0.00,,,0.00,meteohub,2013-08-12 03:17:00,
2013-08-11 23:22:00,66.4,57.0,30.23,North,-999,-999.0,3.0,72,0.00,,,0.00,meteohub,2013-08-12 03:22:00,
2013-08-11 23:27:00,66.4,57.0,30.23,WNW,292,3.0,-999.0,72,0.00,,,0.00,meteohub,2013-08-12 03:27:00,
2013-08-11 23:32:00,66.4,57.0,30.23,NNE,22,2.0,6.0,72,0.00,,,0.00,meteohub,2013-08-12 03:32:00,
2013-08-11 23:37:00,66.2,56.8,30.23,NW,315,3.0,6.0,72,0.00,,,0.00,meteohub,2013-08-12 03:37:00,
2013-08-11 23:42:00,66.2,57.4,30.23,WNW,292,3.0,6.0,73,0.00,,,0.00,meteohub,2013-08-12 03:42:00,
2013-08-11 23:47:00,66.0,57.6,30.23,NW,315,3.0,5.0,74,0.00,,,0.00,meteohub,2013-08-12 03:47:00,
2013-08-11 23:52:00,66.0,57.9,30.23,NNE,22,5.0,5.0,75,0.00,,,0.00,meteohub,2013-08-12 03:52:00,
2013-08-11 23:57:00,66.0,58.3,30.23,NW,315,3.0,5.0,76,0.00,,,0.00,meteohub,2013-08-12 03:57:00,